sensor_id;sensor_type;location;lat;lon;timestamp;P1;durP1;ratioP1;P2;durP2;ratioP2
47259;SDS011;32999;52.412;4.890;2024-03-08T00:00:16;30.70;;;15.23;;
47259;SDS011;32999;52.412;4.890;2024-03-08T00:05:19;33.75;;;14.75;;
47259;SDS011;32999;52.412;4.890;2024-03-08T00:10:23;29.60;;;15.57;;
47259;SDS011;32999;52.412;4.890;2024-03-08T00:15:25;24.20;;;12.77;;
47259;SDS011;32999;52.412;4.890;2024-03-08T00:20:26;23.83;;;12.60;;
47259;SDS011;32999;52.412;4.890;2024-03-08T00:25:30;26.00;;;12.15;;
47259;SDS011;32999;52.412;4.890;2024-03-08T00:30:32;28.10;;;12.88;;
47259;SDS011;32999;52.412;4.890;2024-03-08T00:35:33;28.70;;;12.40;;
47259;SDS011;32999;52.412;4.890;2024-03-08T00:40:37;27.63;;;13.18;;
47259;SDS011;32999;52.412;4.890;2024-03-08T00:45:42;25.92;;;12.60;;
47259;SDS011;32999;52.412;4.890;2024-03-08T00:50:43;23.08;;;11.43;;
47259;SDS011;32999;52.412;4.890;2024-03-08T00:55:47;26.33;;;13.38;;
47259;SDS011;32999;52.412;4.890;2024-03-08T01:00:49;27.77;;;13.98;;
47259;SDS011;32999;52.412;4.890;2024-03-08T01:05:50;22.77;;;11.63;;
47259;SDS011;32999;52.412;4.890;2024-03-08T01:10:54;25.15;;;12.68;;
47259;SDS011;32999;52.412;4.890;2024-03-08T01:15:55;25.77;;;12.07;;
47259;SDS011;32999;52.412;4.890;2024-03-08T01:20:57;27.08;;;13.27;;
47259;SDS011;32999;52.412;4.890;2024-03-08T01:26:00;25.23;;;12.15;;
47259;SDS011;32999;52.412;4.890;2024-03-08T01:31:02;26.33;;;13.32;;
47259;SDS011;32999;52.412;4.890;2024-03-08T01:36:06;25.85;;;12.35;;
47259;SDS011;32999;52.412;4.890;2024-03-08T01:41:09;24.80;;;12.80;;
47259;SDS011;32999;52.412;4.890;2024-03-08T01:46:14;27.25;;;13.70;;
47259;SDS011;32999;52.412;4.890;2024-03-08T01:51:19;29.05;;;14.27;;
47259;SDS011;32999;52.412;4.890;2024-03-08T01:56:22;25.42;;;14.00;;
47259;SDS011;32999;52.412;4.890;2024-03-08T02:01:25;24.87;;;13.20;;
47259;SDS011;32999;52.412;4.890;2024-03-08T02:06:27;38.28;;;16.00;;
47259;SDS011;32999;52.412;4.890;2024-03-08T02:11:31;27.58;;;13.90;;
47259;SDS011;32999;52.412;4.890;2024-03-08T02:16:33;28.65;;;14.77;;
47259;SDS011;32999;52.412;4.890;2024-03-08T02:21:36;28.30;;;14.80;;
47259;SDS011;32999;52.412;4.890;2024-03-08T02:26:38;23.88;;;13.93;;
47259;SDS011;32999;52.412;4.890;2024-03-08T02:31:42;26.48;;;12.60;;
47259;SDS011;32999;52.412;4.890;2024-03-08T02:36:45;27.58;;;13.70;;
47259;SDS011;32999;52.412;4.890;2024-03-08T02:41:47;23.90;;;12.93;;
47259;SDS011;32999;52.412;4.890;2024-03-08T02:46:49;24.05;;;14.13;;
47259;SDS011;32999;52.412;4.890;2024-03-08T02:51:52;21.75;;;12.77;;
47259;SDS011;32999;52.412;4.890;2024-03-08T02:56:57;24.95;;;13.57;;
47259;SDS011;32999;52.412;4.890;2024-03-08T03:01:59;26.77;;;12.98;;
47259;SDS011;32999;52.412;4.890;2024-03-08T03:07:02;24.75;;;13.40;;
47259;SDS011;32999;52.412;4.890;2024-03-08T03:12:04;26.77;;;14.17;;
47259;SDS011;32999;52.412;4.890;2024-03-08T03:17:09;30.87;;;15.00;;
47259;SDS011;32999;52.412;4.890;2024-03-08T03:22:12;28.77;;;15.77;;
47259;SDS011;32999;52.412;4.890;2024-03-08T03:27:15;26.17;;;13.93;;
47259;SDS011;32999;52.412;4.890;2024-03-08T03:32:18;25.38;;;13.23;;
47259;SDS011;32999;52.412;4.890;2024-03-08T03:37:21;26.10;;;14.52;;
47259;SDS011;32999;52.412;4.890;2024-03-08T03:42:23;23.58;;;13.50;;
47259;SDS011;32999;52.412;4.890;2024-03-08T03:47:26;27.15;;;15.25;;
47259;SDS011;32999;52.412;4.890;2024-03-08T03:52:30;23.70;;;13.52;;
47259;SDS011;32999;52.412;4.890;2024-03-08T03:57:31;30.40;;;14.95;;
47259;SDS011;32999;52.412;4.890;2024-03-08T04:02:33;31.27;;;15.57;;
47259;SDS011;32999;52.412;4.890;2024-03-08T04:07:36;27.25;;;14.57;;
47259;SDS011;32999;52.412;4.890;2024-03-08T04:12:39;28.67;;;14.83;;
47259;SDS011;32999;52.412;4.890;2024-03-08T04:17:41;25.75;;;14.27;;
47259;SDS011;32999;52.412;4.890;2024-03-08T04:22:44;31.58;;;15.25;;
47259;SDS011;32999;52.412;4.890;2024-03-08T04:27:47;26.07;;;14.37;;
47259;SDS011;32999;52.412;4.890;2024-03-08T04:32:49;27.23;;;14.65;;
47259;SDS011;32999;52.412;4.890;2024-03-08T04:37:52;28.23;;;14.55;;
47259;SDS011;32999;52.412;4.890;2024-03-08T04:42:54;28.25;;;14.75;;
47259;SDS011;32999;52.412;4.890;2024-03-08T04:47:56;28.80;;;14.70;;
47259;SDS011;32999;52.412;4.890;2024-03-08T04:52:59;31.30;;;15.73;;
47259;SDS011;32999;52.412;4.890;2024-03-08T04:58:01;27.73;;;14.77;;
47259;SDS011;32999;52.412;4.890;2024-03-08T05:03:04;26.42;;;15.02;;
47259;SDS011;32999;52.412;4.890;2024-03-08T05:08:08;24.75;;;14.75;;
47259;SDS011;32999;52.412;4.890;2024-03-08T05:13:09;37.47;;;17.55;;
47259;SDS011;32999;52.412;4.890;2024-03-08T05:18:13;31.52;;;16.83;;
47259;SDS011;32999;52.412;4.890;2024-03-08T05:23:16;24.83;;;14.32;;
47259;SDS011;32999;52.412;4.890;2024-03-08T05:28:19;27.38;;;15.00;;
47259;SDS011;32999;52.412;4.890;2024-03-08T05:33:21;32.30;;;16.38;;
47259;SDS011;32999;52.412;4.890;2024-03-08T05:38:25;37.20;;;14.82;;
47259;SDS011;32999;52.412;4.890;2024-03-08T05:43:27;26.77;;;15.10;;
47259;SDS011;32999;52.412;4.890;2024-03-08T05:48:29;34.65;;;15.93;;
47259;SDS011;32999;52.412;4.890;2024-03-08T05:53:33;29.13;;;14.57;;
47259;SDS011;32999;52.412;4.890;2024-03-08T05:58:35;29.80;;;15.65;;
47259;SDS011;32999;52.412;4.890;2024-03-08T06:03:37;28.50;;;14.98;;
47259;SDS011;32999;52.412;4.890;2024-03-08T06:08:45;29.05;;;15.73;;
47259;SDS011;32999;52.412;4.890;2024-03-08T06:13:49;28.20;;;14.48;;
47259;SDS011;32999;52.412;4.890;2024-03-08T06:18:51;29.10;;;14.85;;
47259;SDS011;32999;52.412;4.890;2024-03-08T06:23:54;28.88;;;15.32;;
47259;SDS011;32999;52.412;4.890;2024-03-08T06:28:57;29.23;;;16.02;;
47259;SDS011;32999;52.412;4.890;2024-03-08T06:33:59;29.13;;;14.88;;
47259;SDS011;32999;52.412;4.890;2024-03-08T06:39:03;26.88;;;14.73;;
47259;SDS011;32999;52.412;4.890;2024-03-08T06:44:09;29.95;;;16.10;;
47259;SDS011;32999;52.412;4.890;2024-03-08T06:49:10;30.73;;;16.40;;
47259;SDS011;32999;52.412;4.890;2024-03-08T06:54:14;29.23;;;15.80;;
47259;SDS011;32999;52.412;4.890;2024-03-08T06:59:16;26.52;;;14.88;;
47259;SDS011;32999;52.412;4.890;2024-03-08T07:04:18;30.13;;;16.90;;
47259;SDS011;32999;52.412;4.890;2024-03-08T07:09:23;29.77;;;15.60;;
47259;SDS011;32999;52.412;4.890;2024-03-08T07:14:25;23.88;;;14.93;;
47259;SDS011;32999;52.412;4.890;2024-03-08T07:19:27;28.85;;;16.13;;
47259;SDS011;32999;52.412;4.890;2024-03-08T07:24:30;31.33;;;16.60;;
47259;SDS011;32999;52.412;4.890;2024-03-08T07:29:50;40.10;;;19.33;;
47259;SDS011;32999;52.412;4.890;2024-03-08T07:34:52;25.98;;;15.35;;
47259;SDS011;32999;52.412;4.890;2024-03-08T07:39:57;26.10;;;15.88;;
47259;SDS011;32999;52.412;4.890;2024-03-08T07:44:59;29.30;;;17.15;;
47259;SDS011;32999;52.412;4.890;2024-03-08T07:50:00;30.95;;;16.02;;
47259;SDS011;32999;52.412;4.890;2024-03-08T07:55:05;28.02;;;15.07;;
47259;SDS011;32999;52.412;4.890;2024-03-08T08:00:08;28.25;;;14.68;;
47259;SDS011;32999;52.412;4.890;2024-03-08T08:05:11;27.05;;;15.63;;
47259;SDS011;32999;52.412;4.890;2024-03-08T08:10:15;27.02;;;14.55;;
47259;SDS011;32999;52.412;4.890;2024-03-08T08:15:18;24.17;;;14.75;;
47259;SDS011;32999;52.412;4.890;2024-03-08T08:20:21;20.42;;;13.13;;
47259;SDS011;32999;52.412;4.890;2024-03-08T08:25:25;26.02;;;14.70;;
47259;SDS011;32999;52.412;4.890;2024-03-08T08:30:27;24.17;;;13.60;;
47259;SDS011;32999;52.412;4.890;2024-03-08T08:35:29;25.23;;;14.82;;
47259;SDS011;32999;52.412;4.890;2024-03-08T08:40:32;28.25;;;14.20;;
47259;SDS011;32999;52.412;4.890;2024-03-08T08:45:39;23.63;;;13.60;;
47259;SDS011;32999;52.412;4.890;2024-03-08T08:50:41;19.77;;;12.70;;
47259;SDS011;32999;52.412;4.890;2024-03-08T08:55:46;21.88;;;12.85;;
47259;SDS011;32999;52.412;4.890;2024-03-08T09:00:50;25.80;;;13.68;;
47259;SDS011;32999;52.412;4.890;2024-03-08T09:05:55;21.08;;;13.32;;
47259;SDS011;32999;52.412;4.890;2024-03-08T09:11:00;24.27;;;13.65;;
47259;SDS011;32999;52.412;4.890;2024-03-08T09:16:12;23.50;;;13.75;;
47259;SDS011;32999;52.412;4.890;2024-03-08T09:21:34;27.52;;;15.43;;
47259;SDS011;32999;52.412;4.890;2024-03-08T09:44:59;26.17;;;14.45;;
47259;SDS011;32999;52.412;4.890;2024-03-08T09:50:25;21.08;;;13.63;;
47259;SDS011;32999;52.412;4.890;2024-03-08T09:55:28;23.25;;;14.32;;
47259;SDS011;32999;52.412;4.890;2024-03-08T10:00:35;22.90;;;13.50;;
47259;SDS011;32999;52.412;4.890;2024-03-08T10:05:37;23.98;;;14.38;;
47259;SDS011;32999;52.412;4.890;2024-03-08T10:10:40;24.33;;;13.90;;
47259;SDS011;32999;52.412;4.890;2024-03-08T10:21:16;21.45;;;13.48;;
47259;SDS011;32999;52.412;4.890;2024-03-08T10:26:35;23.73;;;13.25;;
47259;SDS011;32999;52.412;4.890;2024-03-08T10:31:38;24.25;;;14.73;;
47259;SDS011;32999;52.412;4.890;2024-03-08T10:36:41;25.35;;;13.70;;
47259;SDS011;32999;52.412;4.890;2024-03-08T10:41:43;22.08;;;12.93;;
47259;SDS011;32999;52.412;4.890;2024-03-08T10:46:52;24.65;;;14.43;;
47259;SDS011;32999;52.412;4.890;2024-03-08T10:52:04;28.08;;;15.13;;
47259;SDS011;32999;52.412;4.890;2024-03-08T10:57:08;28.15;;;14.07;;
47259;SDS011;32999;52.412;4.890;2024-03-08T11:02:11;24.33;;;14.80;;
47259;SDS011;32999;52.412;4.890;2024-03-08T11:07:16;22.98;;;13.82;;
47259;SDS011;32999;52.412;4.890;2024-03-08T11:12:23;23.10;;;14.30;;
47259;SDS011;32999;52.412;4.890;2024-03-08T11:17:40;23.88;;;14.65;;
47259;SDS011;32999;52.412;4.890;2024-03-08T11:22:51;21.48;;;13.50;;
47259;SDS011;32999;52.412;4.890;2024-03-08T11:27:58;23.73;;;15.15;;
47259;SDS011;32999;52.412;4.890;2024-03-08T11:38:27;22.95;;;14.10;;
47259;SDS011;32999;52.412;4.890;2024-03-08T11:43:30;23.67;;;14.13;;
47259;SDS011;32999;52.412;4.890;2024-03-08T11:48:32;24.20;;;14.25;;
47259;SDS011;32999;52.412;4.890;2024-03-08T11:53:37;22.13;;;14.25;;
47259;SDS011;32999;52.412;4.890;2024-03-08T11:58:39;21.90;;;14.25;;
47259;SDS011;32999;52.412;4.890;2024-03-08T12:03:42;22.98;;;13.93;;
47259;SDS011;32999;52.412;4.890;2024-03-08T12:08:46;25.52;;;13.68;;
47259;SDS011;32999;52.412;4.890;2024-03-08T12:14:02;24.17;;;13.73;;
47259;SDS011;32999;52.412;4.890;2024-03-08T12:19:18;24.02;;;14.85;;
47259;SDS011;32999;52.412;4.890;2024-03-08T12:24:23;24.00;;;14.75;;
47259;SDS011;32999;52.412;4.890;2024-03-08T12:29:28;28.08;;;13.65;;
47259;SDS011;32999;52.412;4.890;2024-03-08T12:34:31;23.15;;;14.18;;
47259;SDS011;32999;52.412;4.890;2024-03-08T12:39:34;25.67;;;14.90;;
47259;SDS011;32999;52.412;4.890;2024-03-08T12:44:37;21.02;;;13.73;;
47259;SDS011;32999;52.412;4.890;2024-03-08T12:49:43;22.90;;;14.85;;
47259;SDS011;32999;52.412;4.890;2024-03-08T12:54:48;21.50;;;13.18;;
47259;SDS011;32999;52.412;4.890;2024-03-08T12:59:51;21.63;;;12.38;;
47259;SDS011;32999;52.412;4.890;2024-03-08T13:04:54;25.88;;;14.38;;
47259;SDS011;32999;52.412;4.890;2024-03-08T13:10:01;21.83;;;12.55;;
47259;SDS011;32999;52.412;4.890;2024-03-08T13:21:05;23.88;;;14.10;;
47259;SDS011;32999;52.412;4.890;2024-03-08T13:26:20;21.73;;;13.15;;
47259;SDS011;32999;52.412;4.890;2024-03-08T13:31:25;20.25;;;12.77;;
47259;SDS011;32999;52.412;4.890;2024-03-08T13:36:28;20.45;;;12.45;;
47259;SDS011;32999;52.412;4.890;2024-03-08T13:41:43;20.95;;;12.98;;
47259;SDS011;32999;52.412;4.890;2024-03-08T13:46:46;19.88;;;12.20;;
47259;SDS011;32999;52.412;4.890;2024-03-08T13:51:51;18.10;;;11.45;;
47259;SDS011;32999;52.412;4.890;2024-03-08T13:56:56;21.48;;;12.23;;
47259;SDS011;32999;52.412;4.890;2024-03-08T14:01:59;22.13;;;12.38;;
47259;SDS011;32999;52.412;4.890;2024-03-08T14:07:07;18.10;;;11.70;;
47259;SDS011;32999;52.412;4.890;2024-03-08T14:12:15;18.95;;;12.25;;
47259;SDS011;32999;52.412;4.890;2024-03-08T14:17:17;19.45;;;11.73;;
47259;SDS011;32999;52.412;4.890;2024-03-08T14:22:19;15.50;;;9.80;;
47259;SDS011;32999;52.412;4.890;2024-03-08T14:27:24;15.93;;;10.57;;
47259;SDS011;32999;52.412;4.890;2024-03-08T14:32:27;16.58;;;10.60;;
47259;SDS011;32999;52.412;4.890;2024-03-08T14:37:29;14.77;;;9.50;;
47259;SDS011;32999;52.412;4.890;2024-03-08T14:42:41;19.08;;;9.77;;
47259;SDS011;32999;52.412;4.890;2024-03-08T14:47:45;15.52;;;9.45;;
47259;SDS011;32999;52.412;4.890;2024-03-08T14:52:50;15.18;;;9.80;;
47259;SDS011;32999;52.412;4.890;2024-03-08T14:57:54;17.10;;;10.77;;
47259;SDS011;32999;52.412;4.890;2024-03-08T15:02:57;18.15;;;11.13;;
47259;SDS011;32999;52.412;4.890;2024-03-08T15:07:59;18.60;;;10.05;;
47259;SDS011;32999;52.412;4.890;2024-03-08T15:13:04;18.08;;;10.00;;
47259;SDS011;32999;52.412;4.890;2024-03-08T15:18:22;18.52;;;10.82;;
47259;SDS011;32999;52.412;4.890;2024-03-08T15:23:32;17.02;;;9.75;;
47259;SDS011;32999;52.412;4.890;2024-03-08T15:28:36;16.77;;;10.43;;
47259;SDS011;32999;52.412;4.890;2024-03-08T15:33:39;16.97;;;10.70;;
47259;SDS011;32999;52.412;4.890;2024-03-08T15:38:45;19.05;;;11.25;;
47259;SDS011;32999;52.412;4.890;2024-03-08T15:43:58;24.17;;;11.43;;
47259;SDS011;32999;52.412;4.890;2024-03-08T15:49:00;19.43;;;11.87;;
47259;SDS011;32999;52.412;4.890;2024-03-08T15:54:07;18.10;;;11.48;;
47259;SDS011;32999;52.412;4.890;2024-03-08T15:59:14;22.88;;;11.18;;
47259;SDS011;32999;52.412;4.890;2024-03-08T16:04:18;14.65;;;10.13;;
47259;SDS011;32999;52.412;4.890;2024-03-08T16:09:22;16.02;;;10.45;;
47259;SDS011;32999;52.412;4.890;2024-03-08T16:14:35;16.40;;;9.55;;
47259;SDS011;32999;52.412;4.890;2024-03-08T16:31:49;18.02;;;9.98;;
47259;SDS011;32999;52.412;4.890;2024-03-08T17:34:30;24.17;;;13.02;;
47259;SDS011;32999;52.412;4.890;2024-03-08T17:39:36;25.90;;;13.88;;
47259;SDS011;32999;52.412;4.890;2024-03-08T17:44:38;24.08;;;14.38;;
47259;SDS011;32999;52.412;4.890;2024-03-08T17:49:42;27.58;;;15.32;;
47259;SDS011;32999;52.412;4.890;2024-03-08T17:54:45;25.42;;;15.27;;
47259;SDS011;32999;52.412;4.890;2024-03-08T17:59:53;23.83;;;14.13;;
47259;SDS011;32999;52.412;4.890;2024-03-08T18:04:59;26.33;;;14.93;;
47259;SDS011;32999;52.412;4.890;2024-03-08T18:10:04;28.23;;;15.82;;
47259;SDS011;32999;52.412;4.890;2024-03-08T18:15:07;27.25;;;16.30;;
47259;SDS011;32999;52.412;4.890;2024-03-08T18:20:11;32.22;;;17.02;;
47259;SDS011;32999;52.412;4.890;2024-03-08T18:25:14;26.55;;;15.55;;
47259;SDS011;32999;52.412;4.890;2024-03-08T18:30:18;22.98;;;13.73;;
47259;SDS011;32999;52.412;4.890;2024-03-08T18:35:21;27.95;;;16.75;;
47259;SDS011;32999;52.412;4.890;2024-03-08T18:40:23;31.27;;;16.42;;
47259;SDS011;32999;52.412;4.890;2024-03-08T18:45:36;31.10;;;15.48;;
47259;SDS011;32999;52.412;4.890;2024-03-08T18:50:40;26.08;;;14.52;;
47259;SDS011;32999;52.412;4.890;2024-03-08T18:55:45;27.95;;;16.45;;
47259;SDS011;32999;52.412;4.890;2024-03-08T19:00:47;24.98;;;15.00;;
47259;SDS011;32999;52.412;4.890;2024-03-08T19:05:53;28.03;;;15.20;;
47259;SDS011;32999;52.412;4.890;2024-03-08T19:10:55;24.53;;;13.83;;
47259;SDS011;32999;52.412;4.890;2024-03-08T19:16:04;21.65;;;13.77;;
47259;SDS011;32999;52.412;4.890;2024-03-08T19:21:15;27.33;;;14.68;;
47259;SDS011;32999;52.412;4.890;2024-03-08T19:31:45;23.92;;;14.68;;
47259;SDS011;32999;52.412;4.890;2024-03-08T19:36:54;29.75;;;15.13;;
47259;SDS011;32999;52.412;4.890;2024-03-08T19:42:19;28.10;;;15.40;;
47259;SDS011;32999;52.412;4.890;2024-03-08T19:59:33;32.78;;;15.88;;
47259;SDS011;32999;52.412;4.890;2024-03-08T20:09:50;29.08;;;14.73;;
47259;SDS011;32999;52.412;4.890;2024-03-08T20:15:10;27.95;;;15.10;;
47259;SDS011;32999;52.412;4.890;2024-03-08T20:20:14;29.20;;;15.65;;
47259;SDS011;32999;52.412;4.890;2024-03-08T20:25:17;35.20;;;16.52;;
47259;SDS011;32999;52.412;4.890;2024-03-08T20:35:25;27.65;;;15.15;;
47259;SDS011;32999;52.412;4.890;2024-03-08T20:40:29;24.70;;;13.63;;
47259;SDS011;32999;52.412;4.890;2024-03-08T20:45:50;23.00;;;13.23;;
47259;SDS011;32999;52.412;4.890;2024-03-08T20:51:17;26.35;;;13.80;;
47259;SDS011;32999;52.412;4.890;2024-03-08T21:13:07;25.73;;;13.25;;
47259;SDS011;32999;52.412;4.890;2024-03-08T21:18:13;26.80;;;15.18;;
47259;SDS011;32999;52.412;4.890;2024-03-08T21:23:15;30.10;;;15.38;;
47259;SDS011;32999;52.412;4.890;2024-03-08T21:39:48;28.58;;;15.50;;
47259;SDS011;32999;52.412;4.890;2024-03-08T21:44:53;25.83;;;14.48;;
47259;SDS011;32999;52.412;4.890;2024-03-08T22:01:40;24.63;;;13.93;;
47259;SDS011;32999;52.412;4.890;2024-03-08T22:42:56;26.42;;;14.05;;
47259;SDS011;32999;52.412;4.890;2024-03-08T22:48:15;27.73;;;14.60;;
47259;SDS011;32999;52.412;4.890;2024-03-08T22:53:23;27.98;;;15.23;;
47259;SDS011;32999;52.412;4.890;2024-03-08T22:58:31;27.77;;;14.25;;
47259;SDS011;32999;52.412;4.890;2024-03-08T23:03:37;29.20;;;15.93;;
47259;SDS011;32999;52.412;4.890;2024-03-08T23:08:39;29.75;;;16.83;;
47259;SDS011;32999;52.412;4.890;2024-03-08T23:13:47;28.58;;;16.17;;
47259;SDS011;32999;52.412;4.890;2024-03-08T23:18:51;28.83;;;15.60;;
47259;SDS011;32999;52.412;4.890;2024-03-08T23:23:55;30.65;;;16.23;;
47259;SDS011;32999;52.412;4.890;2024-03-08T23:34:03;33.00;;;16.98;;
47259;SDS011;32999;52.412;4.890;2024-03-08T23:39:07;34.78;;;17.38;;
47259;SDS011;32999;52.412;4.890;2024-03-08T23:49:14;37.53;;;19.00;;
47259;SDS011;32999;52.412;4.890;2024-03-08T23:54:17;31.88;;;16.70;;
47259;SDS011;32999;52.412;4.890;2024-03-08T23:59:23;34.95;;;16.58;;
